Rachel, Nevada Weather observations

Data are for observation ending at time listed.
 Day   Time    Ave.   Ave.  Ave.  Vector   Max.   Stn.    Total    Solar   Ave.  
  of    of     Air    Rel.  Wind   Wind    Wind   Baro.  Precip.   Rad.    Soil  
Year   Day     Temp.  Hum.  Speed  Dir.    Gust   Pres.                    Temp. 
2016   (PST)    F      %     mph   deg.    mph     mb.     in.     W/m2     F   
------------------------------------------------------------------------------
 181    7:50   84.2    24    0.9    27      3.1   855.1    0.00     409    84.3
 181    8:00   84.5    24    0.9   283      2.5   856.0    0.00     430    84.0
 181    8:10   84.9    24    2.8   302      6.4   857.0    0.00     451    83.7
 181    8:20   84.3    24    3.7   320      6.4   856.9    0.00     471    83.9
 181    8:30   86.0    22    1.9   343      4.8   857.1    0.00     492    84.9
 181    8:40   87.6    20    4.3    22      8.2   857.0    0.00     512    86.0
 181    8:50   88.4    19    6.8   154     12.8   856.8    0.00     532    86.8
 181    9:00   88.2    18    8.1   162     15.1   856.8    0.00     549    87.8
 181    9:10   89.0    18    8.5   165     15.3   857.0    0.00     565    88.4
 181    9:20   89.1    18    8.2   158     17.0   857.0    0.00     582    89.1
 181    9:30   89.9    17    5.6   193     13.6   857.3    0.00     622    89.8
 181    9:40   90.5    17    5.1   124      9.8   857.3    0.00     463    90.3
 181    9:50   88.8    18    4.9    35     11.1   857.3    0.00     258    89.7
 181   10:00   89.3    18    5.4   116     12.1   857.3    0.00     228    89.0
 181   10:10   90.8    17    2.5   172      8.0   857.1    0.00     590    88.9
 181   10:20   91.5    17    3.7   343      6.8   857.1    0.00     395    89.8
 181   10:30   89.7    18    7.2   303     13.8   856.9    0.00     284    89.6
 181   10:40   89.5    18    4.0   312     11.4   856.8    0.00     211    89.3
 181   10:50   88.6    18    3.7   296      9.6   856.6    0.00     173    88.9
 181   11:00   88.9    20    2.4   346      5.3   856.5    0.00     198    88.6
 181   11:10   88.5    22    6.1     4      8.3   856.2    0.00     245    88.1
 181   11:20   88.6    21    6.1     7     10.7   856.0    0.00     201    87.9
 181   11:30   88.8    20    4.8    37      8.0   855.9    0.00     233    87.7
 181   11:40   89.1    19    3.3   140     10.2   855.8    0.00     238    87.7
 181   11:50   88.8    22    2.8   220      8.3   855.8    0.00     209    87.2
 181   12:00   88.5    20    5.9   306     16.1   855.8    0.00     147    86.9
 181   12:10   88.1    18   14.1   270     27.4   856.0    0.00     134    86.7
 181   12:20   86.3    20   21.2   248     32.0   855.7    0.00     145    86.3
 181   12:30   85.5    20   18.4   247     27.0   855.5    0.00     147    85.9
 181   12:40   86.6    19   15.0   243     23.6   855.4    0.00     144    85.9
 181   12:50   87.2    18   10.7   205     18.8   855.6    0.00     152    86.1
 181   13:00   85.4    22    4.4   159     11.8   855.6    0.00     164    85.9
 181   13:10   85.4    22    8.4   143     12.6   855.7    0.00     173    85.9
 181   13:20   85.2    22    9.5   130     13.3   855.6    0.00     223    85.7
 181   13:30   86.7    20    9.6   121     15.6   855.5    0.00     270    85.7
 181   13:40   87.6    19   12.5   164     17.0   855.6    0.00     308    86.1
 181   13:50   87.7    20   16.6   157     21.9   855.6    0.00     412    86.4
 181   14:00   88.0    19   17.9   151     26.8   855.6    0.00     424    86.4
 181   14:10   87.8    20   19.3   150     27.4   855.6    0.00     342    86.5
 181   14:20   86.7    22   19.8   154     25.4   855.5    0.00     253    86.3
 181   14:30   86.6    22   20.0   152     27.8   855.4    0.00     235    86.2
 181   14:40   86.6    21   19.5   158     25.9   855.2    0.00     228    86.1
 181   14:50   86.6    21   17.9   157     23.7   855.2    0.00     184    86.2
 181   15:00   87.2    20   17.6   154     24.8   855.0    0.00     238    86.3
 181   15:10   87.2    20   20.2   154     25.9   854.9    0.00     206    86.2
 181   15:20   86.9    20   17.4   156     24.6   854.8    0.00     147    86.0
 181   15:30   85.3    23   22.1   147     30.7   854.8    0.00     131    85.7
 181   15:40   85.2    22   21.0   152     27.7   854.8    0.00     211    85.4
 181   15:50   85.5    22   19.3   151     26.9   854.7    0.00     261    85.4
 181   16:00   85.9    21   15.7   151     23.5   854.6    0.00     181    85.6
 181   16:10   85.8    21   12.1   148     24.6   854.7    0.00     125    85.6
 181   16:20   86.4    20   11.0   172     16.4   854.8    0.00      87    85.6
 181   16:30   86.6    19    4.3   255      9.9   855.0    0.00      58    85.7
 181   16:40   85.9    20   12.6   280     25.4   855.4    0.00      41    85.6
 181   16:50   82.1    27   26.9   315     38.8   855.4    0.00      37    85.4
 181   17:00   80.1    31   20.5   316     29.6   855.6    0.00      39    85.0
 181   17:10   79.3    33   15.2   338     24.1   855.5    0.00      39    84.5
 181   17:20   79.6    32   14.3   352     20.3   855.4    0.00      39    84.1
 181   17:30   79.2    33   15.4   351     21.0   855.5    0.00      30    83.8
 181   17:40   78.7    34   12.2   352     22.3   855.6    0.00      21    83.6
 181   17:50   77.4    39   14.0   354     20.0   854.9    0.00      20    83.1
 181   18:00   76.2    42   16.4   358     21.5   854.3    0.00      20    82.6
 181   18:10   76.2    42   13.9   359     17.9   854.5    0.00      23    82.2
 181   18:20   76.2    40    6.9     1     10.7   854.3    0.00      13    82.1
 181   18:30   76.2    40    3.2    12      6.6   854.6    0.00       3    82.0
 181   18:40   76.0    40    8.1   343     16.3   854.7    0.00       3    81.9
 181   18:50   78.3    32   15.7   335     30.4   853.9    0.00       3    81.5
 181   19:00   77.9    36    9.1   233     17.3   853.6    0.00       2    81.5
 181   19:10   77.4    34    9.2   275     15.3   853.5    0.00       1    81.4
 181   19:20   78.2    31   14.5   305     25.5   853.5    0.00       0    81.4
 181   19:30   78.8    29   12.5   312     24.6   853.6    0.00       0    81.3
 181   19:40   78.0    32    4.8   272      8.9   853.6    0.00       0    81.2
 181   19:50   79.5    27    6.1    46     14.0   853.6    0.00       0    81.1
 181   20:00   78.2    33   16.1   344     23.3   854.2    0.00       0    81.1
 181   20:10   75.5    40   13.3   326     19.8   854.7    0.00       0    80.8
 181   20:20   75.7    37   15.5   312     25.7   854.4    0.00       0    80.5
 181   20:30   75.3    38   14.3   339     17.5   854.0    0.00       0    80.3
 181   20:40   74.5    41   15.1   336     19.4   853.9    0.00       0    80.1
 181   20:50   73.8    44   14.3   326     20.4   854.1    0.00       0    79.9
 181   21:00   73.5    45   10.4   350     14.6   853.8    0.00       0    79.7
 181   21:10   74.0    42    5.0   242     10.4   853.9    0.00       0    79.5
 181   21:20   73.5    42    7.3    92      9.8   853.7    0.00       0    79.2
 181   21:30   73.9    40    9.3   102     14.5   853.5    0.00       0    79.1
 181   21:40   73.8    40   10.0    83     14.4   853.8    0.00       0    79.0
 181   21:50   73.8    39    8.3    94     10.7   853.7    0.00       0    78.9
 181   22:00   73.8    40    9.6   100     15.2   853.4    0.00       0    78.8
 181   22:10   74.1    39   10.9   100     15.0   853.4    0.00       0    78.6
 181   22:20   73.8    39    7.6   104     10.4   853.4    0.00       0    78.5
 181   22:30   73.7    39    8.4    94     12.8   853.3    0.00       0    78.4
 181   22:40   73.9    38    8.6    91     13.0   853.2    0.00       0    78.3
 181   22:50   73.5    38    8.4    90     10.4   852.9    0.00       0    78.3
 181   23:00   72.9    39    7.1    88      9.3   852.8    0.00       0    78.2
 181   23:10   72.6    40    6.3    88      7.7   852.6    0.00       0    78.1
 181   23:20   71.6    41    2.9   108      6.4   852.4    0.00       0    77.9
 181   23:30   72.2    40    2.4   136      3.5   852.0    0.00       0    77.9
 181   23:40   71.4    40    3.9   204      6.4   852.2    0.00       0    77.7
 181   23:50   70.7    40    3.5   218      5.3   851.6    0.00       0    77.6
 182    0:00   69.3    41    5.6   203      7.5   851.6    0.00       0    77.4
 182    0:10   68.2    43    7.3   185      9.2   851.5    0.00       0    77.2
 182    0:20   69.4    41    7.1   174      9.1   851.9    0.00       0    76.9
 182    0:30   68.5    46    5.6   219      7.4   852.1    0.00       0    76.8
 182    0:40   67.0    52    4.2   271      7.7   851.9    0.00       0    76.6
 182    0:50   68.2    50    2.7   295      5.5   851.7    0.00       0    76.6
 182    1:00   66.0    58    6.0   304     10.7   851.8    0.00       0    76.3
 182    1:10   70.1    45    3.9   286     11.1   851.6    0.00       0    76.3
 182    1:20   70.4    47    1.9   292      7.2   851.6    0.00       0    76.3
 182    1:30   67.7    57    2.2    48      5.1   851.7    0.00       0    76.3
 182    1:40   67.3    57    2.7   258      6.4   851.8    0.00       0    76.2
 182    1:50   67.9    55    4.2   261      7.5   851.8    0.00       0    76.0
 182    2:00   68.0    54    3.1   326      5.3   851.9    0.00       0    76.1
 182    2:10   67.2    56    1.2   332      2.9   851.9    0.00       0    75.9
 182    2:20   67.3    54    1.9    72      6.6   852.0    0.00       0    75.7
 182    2:30   66.7    54    5.1    80      8.1   851.9    0.00       0    75.5
 182    2:40   67.4    51    1.7   130      3.1   852.0    0.00       0    75.4
 182    2:50   67.5    50    1.7    95      2.9   851.9    0.00       0    75.4
 182    3:00   67.1    51    2.7   157      3.7   852.0    0.00       0    75.4
 182    3:10   66.1    51    3.8   178      4.6   852.1    0.00       0    75.2
 182    3:20   65.7    51    2.9   149      4.1   852.3    0.00       0    75.1
 182    3:30   64.9    53    3.0   138      5.1   852.7    0.00       0    74.8
 182    3:40   64.9    51    4.2   132      5.5   852.2    0.00       0    74.5
 182    3:50   64.3    53    1.0   300      3.5   852.4    0.00       0    74.4
 182    4:00   62.8    61    2.8   332      3.7   852.5    0.00       0    74.3
 182    4:10   62.9    62    2.3   255      3.4   852.5    0.00       0    74.2
 182    4:20   62.8    62    3.7   235      4.9   852.5    0.00       0    74.1
 182    4:30   62.7    63    3.2   236      4.2   852.4    0.00       2    73.9
 182    4:40   62.5    63    4.2   235      5.8   852.4    0.00       3    73.8
 182    4:50   63.0    60    4.4   227      5.5   852.5    0.00       3    73.7
 182    5:00   64.2    58    2.6   251      5.5   852.6    0.00       9    73.8
 182    5:10   63.6    58    1.5    18      3.3   852.7    0.00      16    73.7
 182    5:20   62.7    61    1.5    36      3.1   852.7    0.00      21    73.5
 182    5:30   63.0    63    2.0   158      4.0   852.6    0.00      25    73.3
 182    5:40   63.9    63    2.8   229      4.4   852.4    0.00      25    73.3
 182    5:50   64.0    64    1.8   200      3.0   852.4    0.00      30    73.4
 182    6:00   64.3    62    1.8   182      2.1   852.4    0.00      46    73.3
 182    6:10   65.5    58    2.1   170      2.8   852.4    0.00      74    73.5
 182    6:20   67.5    53    2.1   177      3.4   852.5    0.00     190    73.9
 182    6:30   70.2    47    1.5   224      2.9   852.8    0.00     132    74.9
 182    6:40   71.7    44    0.9   225      2.0   853.0    0.00     159    75.6
 182    6:50   72.9    42    0.1   182      0.9   853.0    0.00     247    76.2
 182    7:00   76.2    37    0.4   239      1.6   853.0    0.00     323    77.3
 182    7:10   77.5    35    0.3   209      1.5   853.5    0.00     339    78.4
 182    7:20   78.2    33    1.1   160      3.5   853.6    0.00     383    79.4
 182    7:30   78.2    33    1.6   128      3.9   853.5    0.00     378    80.1
 182    7:40   78.6    32    0.9   179      2.5   853.9    0.00     391    80.9

Return to St. George, Utah graphs page.


Western Regional Climate Center,wrcc@dri.edu